createdAt,value
2023-05-17T00:00:01.983Z,97002.72
2023-05-17T00:02:29.547Z,97001.63
2023-05-17T00:04:58.563Z,96998.69
2023-05-17T00:07:26.127Z,96999.06
2023-05-17T00:09:53.715Z,97004.78
2023-05-17T00:12:21.363Z,97002.69
2023-05-17T00:14:49.070Z,97003.22
2023-05-17T00:17:16.836Z,97008.59
2023-05-17T00:19:44.389Z,97009.06
2023-05-17T00:22:13.386Z,97006.41
2023-05-17T00:24:41.040Z,97002.47
2023-05-17T00:27:08.656Z,97011.75
2023-05-17T00:29:36.281Z,97006.53
2023-05-17T00:32:03.998Z,97003.91
2023-05-17T00:34:31.640Z,97004.56
2023-05-17T00:36:59.217Z,97011.22
2023-05-17T00:39:28.143Z,97018.06
2023-05-17T00:41:55.718Z,97017.28
2023-05-17T00:44:23.314Z,97011.56
2023-05-17T00:46:51.426Z,97020.41
2023-05-17T00:49:19.399Z,97010.78
2023-05-17T00:51:47.277Z,97010.94
2023-05-17T00:54:15.831Z,97016.31
2023-05-17T00:56:45.406Z,97013.13
2023-05-17T00:59:14.826Z,97013.50
2023-05-17T01:01:43.212Z,97017.88
2023-05-17T01:04:11.534Z,97021.34
2023-05-17T01:06:39.175Z,97022.97
2023-05-17T01:09:07.171Z,97024.44
2023-05-17T01:11:43.553Z,97023.31
2023-05-17T01:14:39.330Z,97031.78
2023-05-17T01:17:13.478Z,97032.78
2023-05-17T01:19:58.751Z,97033.44
2023-05-17T01:22:40.246Z,97038.16
2023-05-17T01:25:28.137Z,97043.38
2023-05-17T01:28:02.161Z,97046.50
2023-05-17T01:30:30.792Z,97056.75
2023-05-17T01:33:00.146Z,97051.03
2023-05-17T01:35:28.256Z,97059.16
2023-05-17T01:37:56.286Z,97056.41
2023-05-17T01:40:24.556Z,97061.47
2023-05-17T01:42:58.930Z,97063.06
2023-05-17T01:45:31.697Z,97062.78
2023-05-17T01:48:05.145Z,97066.69
2023-05-17T01:50:34.910Z,97072.22
2023-05-17T01:53:08.665Z,97072.91
2023-05-17T01:55:44.139Z,97074.53
2023-05-17T01:58:14.379Z,97076.81
2023-05-17T02:00:44.952Z,97069.59
2023-05-17T02:03:14.421Z,97072.88
2023-05-17T02:05:42.176Z,97074.22
2023-05-17T02:08:09.780Z,97073.38
2023-05-17T02:10:37.438Z,97074.81
2023-05-17T02:13:05.591Z,97077.44
2023-05-17T02:15:34.576Z,97071.59
2023-05-17T02:18:02.278Z,97071.13
2023-05-17T02:20:29.881Z,97071.59
2023-05-17T02:22:57.477Z,97072.06
2023-05-17T02:25:25.044Z,97074.38
2023-05-17T02:27:52.665Z,97070.63
2023-05-17T02:30:22.206Z,97078.28
2023-05-17T02:32:52.766Z,97079.78
2023-05-17T02:35:20.735Z,97078.13
2023-05-17T02:37:48.310Z,97076.34
2023-05-17T02:40:16.060Z,97085.00
2023-05-17T02:42:43.624Z,97089.56
2023-05-17T02:45:12.115Z,97086.28
2023-05-17T02:47:39.899Z,97082.22
2023-05-17T02:50:09.848Z,97088.41
2023-05-17T02:52:37.446Z,97085.81
2023-05-17T02:55:05.537Z,97087.28
2023-05-17T02:57:33.175Z,97085.66
2023-05-17T03:00:00.749Z,97089.25
2023-05-17T03:02:28.483Z,97086.63
2023-05-17T03:04:56.237Z,97090.19
2023-05-17T03:07:25.180Z,97091.19
2023-05-17T03:09:52.863Z,97098.19
2023-05-17T03:12:20.541Z,97098.34
2023-05-17T03:14:48.137Z,97098.84
2023-05-17T03:17:15.915Z,97108.09
2023-05-17T03:19:43.614Z,97112.34
2023-05-17T03:22:11.501Z,97110.53
2023-05-17T03:24:40.445Z,97111.50
2023-05-17T03:27:08.025Z,97107.09
2023-05-17T03:29:35.654Z,97114.91
2023-05-17T03:32:03.311Z,97115.09
2023-05-17T03:34:30.925Z,97114.09
2023-05-17T03:36:58.508Z,97121.44
2023-05-17T03:39:26.025Z,97122.25
2023-05-17T03:41:55.100Z,97125.00
2023-05-17T03:44:22.669Z,97125.81
2023-05-17T03:46:50.287Z,97126.94
2023-05-17T03:49:17.961Z,97126.47
2023-05-17T03:51:46.099Z,97126.31
2023-05-17T03:54:13.645Z,97118.78
2023-05-17T03:56:43.576Z,97122.00
2023-05-17T03:59:12.475Z,97127.13
2023-05-17T04:01:40.076Z,97127.75
2023-05-17T04:04:07.654Z,97131.31
2023-05-17T04:06:35.371Z,97140.41
2023-05-17T04:09:02.946Z,97141.03
2023-05-17T04:11:30.518Z,97141.88
2023-05-17T04:13:58.118Z,97144.47
2023-05-17T04:16:27.172Z,97143.13
2023-05-17T04:18:54.842Z,97142.63
2023-05-17T04:21:22.455Z,97140.78
2023-05-17T04:23:50.042Z,97137.47
2023-05-17T04:26:17.683Z,97150.19
2023-05-17T04:28:45.427Z,97146.06
2023-05-17T04:31:14.902Z,97155.28
2023-05-17T04:33:43.925Z,97156.19
2023-05-17T04:36:11.555Z,97157.88
2023-05-17T04:38:39.167Z,97159.00
2023-05-17T04:41:09.342Z,97163.94
2023-05-17T04:43:37.185Z,97170.88
2023-05-17T04:46:05.580Z,97171.84
2023-05-17T04:48:34.209Z,97174.44
2023-05-17T04:51:04.387Z,97172.06
2023-05-17T04:53:32.441Z,97182.88
2023-05-17T04:56:00.056Z,97183.75
2023-05-17T04:58:27.672Z,97183.44
2023-05-17T05:00:55.268Z,97181.97
2023-05-17T05:03:23.808Z,97184.22
2023-05-17T05:05:51.659Z,97183.56
2023-05-17T05:08:20.619Z,97189.06
2023-05-17T05:10:48.193Z,97194.03
2023-05-17T05:13:15.911Z,97202.44
2023-05-17T05:15:43.706Z,97203.56
2023-05-17T05:18:11.410Z,97201.91
2023-05-17T05:20:39.069Z,97205.16
2023-05-17T05:23:06.806Z,97208.75
2023-05-17T05:25:35.902Z,97222.69
2023-05-17T05:28:03.562Z,97214.75
2023-05-17T05:30:31.154Z,97209.25
2023-05-17T05:32:58.820Z,97217.56
2023-05-17T05:35:30.345Z,97217.63
2023-05-17T05:37:58.674Z,97213.16
2023-05-17T05:40:26.422Z,97221.03
2023-05-17T05:42:55.403Z,97216.84
2023-05-17T05:45:23.108Z,97220.78
2023-05-17T05:47:50.802Z,97218.19
2023-05-17T05:53:19.426Z,97221.66
2023-05-17T05:55:47.800Z,97230.91
2023-05-17T05:58:16.768Z,97227.06
2023-05-17T06:00:44.435Z,97230.06
2023-05-17T06:03:12.087Z,97242.44
2023-05-17T06:05:40.699Z,97239.38
2023-05-17T06:08:08.779Z,97238.94
2023-05-17T06:10:36.651Z,97236.69
2023-05-17T06:13:05.014Z,97244.16
2023-05-17T06:15:34.029Z,97243.03
2023-05-17T06:18:01.949Z,97249.75
2023-05-17T06:20:29.956Z,97247.47
2023-05-17T06:22:58.402Z,97244.56
2023-05-17T06:25:26.789Z,97251.75
2023-05-17T06:27:54.480Z,97252.75
2023-05-17T06:30:22.277Z,97246.63
2023-05-17T06:32:51.980Z,97259.03
2023-05-17T06:35:21.886Z,97244.88
2023-05-17T06:37:49.513Z,97247.03
2023-05-17T06:40:17.506Z,97241.19
2023-05-17T06:42:45.178Z,97251.78
2023-05-17T06:45:13.018Z,97241.56
2023-05-17T06:47:40.707Z,97242.69
2023-05-17T06:50:10.551Z,97248.75
2023-05-17T06:52:38.235Z,97246.16
2023-05-17T06:55:07.511Z,97242.78
2023-05-17T06:57:35.150Z,97245.56
2023-05-17T07:00:02.736Z,97251.75
2023-05-17T07:02:34.629Z,97251.25
2023-05-17T07:05:02.779Z,97245.56
2023-05-17T07:07:31.804Z,97246.72
2023-05-17T07:09:59.350Z,97248.50
2023-05-17T07:12:26.973Z,97257.94
2023-05-17T07:14:54.549Z,97248.53
2023-05-17T07:17:22.102Z,97249.50
2023-05-17T07:19:51.055Z,97253.09
2023-05-17T07:22:19.125Z,97259.94
2023-05-17T07:24:49.035Z,97259.28
2023-05-17T07:27:19.657Z,97254.22
2023-05-17T07:29:47.383Z,97259.59
2023-05-17T07:32:15.970Z,97257.31
2023-05-17T07:34:43.663Z,97266.91
2023-05-17T07:37:11.270Z,97265.28
2023-05-17T07:39:38.812Z,97256.94
2023-05-17T07:42:08.636Z,97260.50
2023-05-17T07:44:36.193Z,97258.38
2023-05-17T07:47:03.801Z,97255.25
2023-05-17T07:49:32.114Z,97266.00
2023-05-17T07:51:59.920Z,97262.72
2023-05-17T07:54:28.060Z,97260.41
2023-05-17T07:56:56.146Z,97259.75
2023-05-17T07:59:25.529Z,97261.16
2023-05-17T08:01:53.372Z,97262.28
2023-05-17T08:04:21.076Z,97259.34
2023-05-17T08:06:50.042Z,97258.66
2023-05-17T08:09:17.691Z,97266.78
2023-05-17T08:11:46.777Z,97258.44
2023-05-17T08:14:15.595Z,97260.88
2023-05-17T08:16:46.635Z,97264.94
2023-05-17T08:19:15.843Z,97267.03
2023-05-17T08:21:46.200Z,97262.09
2023-05-17T08:24:13.832Z,97260.44
2023-05-17T08:26:41.900Z,97265.63
2023-05-17T08:29:09.479Z,97260.34
2023-05-17T08:31:37.053Z,97259.28
2023-05-17T08:34:06.154Z,97264.66
2023-05-17T08:36:33.876Z,97269.38
2023-05-17T08:39:01.501Z,97273.25
2023-05-17T08:41:31.771Z,97272.91
2023-05-17T08:44:00.023Z,97269.94
2023-05-17T08:46:28.970Z,97267.41
2023-05-17T08:49:00.505Z,97274.41
2023-05-17T08:51:29.956Z,97265.66
2023-05-17T08:53:57.739Z,97270.34
2023-05-17T08:56:28.264Z,97274.59
2023-05-17T08:58:58.102Z,97261.34
2023-05-17T09:01:27.941Z,97262.44
2023-05-17T09:03:56.929Z,97269.22
2023-05-17T09:06:25.136Z,97263.91
2023-05-17T09:08:55.703Z,97269.88
2023-05-17T09:11:26.864Z,97274.84
2023-05-17T09:13:54.609Z,97276.56
2023-05-17T09:16:22.332Z,97272.22
2023-05-17T09:18:55.668Z,97280.44
2023-05-17T09:21:24.018Z,97278.09
2023-05-17T09:24:05.634Z,97277.38
2023-05-17T09:26:42.199Z,97271.66
2023-05-17T09:29:11.512Z,97279.78
2023-05-17T09:31:39.620Z,97272.56
2023-05-17T09:34:08.134Z,97276.81
2023-05-17T09:36:37.808Z,97282.31
2023-05-17T09:39:11.954Z,97286.00
2023-05-17T09:41:43.483Z,97285.28
2023-05-17T09:44:12.452Z,97296.81
2023-05-17T09:46:42.993Z,97294.66
2023-05-17T09:49:10.620Z,97297.09
2023-05-17T09:51:42.676Z,97292.09
2023-05-17T09:54:12.203Z,97293.16
2023-05-17T09:56:40.399Z,97292.25
2023-05-17T09:59:13.195Z,97289.50
2023-05-17T10:01:42.651Z,97296.00
2023-05-17T10:04:11.274Z,97290.75
2023-05-17T10:06:46.454Z,97295.00
2023-05-17T10:09:22.034Z,97295.00
2023-05-17T10:11:53.272Z,97297.63
2023-05-17T10:14:26.586Z,97295.22
2023-05-17T10:16:55.144Z,97296.88
2023-05-17T10:19:24.247Z,97297.69
2023-05-17T10:21:54.770Z,97299.75
2023-05-17T10:24:25.908Z,97290.13
2023-05-17T10:26:54.804Z,97298.06
2023-05-17T10:29:31.876Z,97299.97
2023-05-17T10:32:07.362Z,97291.56
2023-05-17T10:34:37.040Z,97303.28
2023-05-17T10:39:47.099Z,97293.34
2023-05-17T10:42:18.299Z,97293.81
2023-05-17T10:44:46.913Z,97291.28
2023-05-17T10:47:16.331Z,97295.38
2023-05-17T10:49:48.396Z,97297.81
2023-05-17T10:52:18.299Z,97295.97
2023-05-17T10:54:50.282Z,97300.84
2023-05-17T10:57:23.280Z,97301.28
2023-05-17T10:59:58.962Z,97297.25
2023-05-17T11:02:28.273Z,97297.88
2023-05-17T11:04:57.846Z,97285.53
2023-05-17T11:07:29.177Z,97290.59
2023-05-17T11:10:07.099Z,97287.97
2023-05-17T11:12:38.465Z,97287.19
2023-05-17T11:15:10.505Z,97284.16
2023-05-17T11:17:50.159Z,97288.63
2023-05-17T11:20:37.065Z,97285.59
2023-05-17T11:23:06.274Z,97276.72
2023-05-17T11:25:37.113Z,97277.97
2023-05-17T11:28:09.437Z,97273.91
2023-05-17T11:30:47.914Z,97275.38
2023-05-17T11:33:33.129Z,97272.34
2023-05-17T11:36:23.047Z,97275.16
2023-05-17T11:38:55.262Z,97278.00
2023-05-17T11:42:24.123Z,97269.72
2023-05-17T11:45:15.986Z,97270.31
2023-05-17T11:47:48.882Z,97262.66
2023-05-17T11:50:17.500Z,97271.19
2023-05-17T11:52:45.112Z,97259.63
2023-05-17T11:55:16.322Z,97270.13
2023-05-17T11:57:44.726Z,97262.22
2023-05-17T12:00:16.677Z,97267.81
2023-05-17T12:02:44.538Z,97264.53
2023-05-17T12:05:12.489Z,97266.53
2023-05-17T12:07:40.751Z,97270.94
2023-05-17T12:10:14.109Z,97278.63
2023-05-17T12:12:43.643Z,97274.56
2023-05-17T12:15:20.502Z,97267.50
2023-05-17T12:17:51.731Z,97268.94
2023-05-17T12:20:19.576Z,97268.53
2023-05-17T12:22:54.445Z,97275.03
2023-05-17T12:25:25.206Z,97267.13
2023-05-17T12:27:53.050Z,97264.91
2023-05-17T12:30:23.867Z,97269.97
2023-05-17T12:32:51.582Z,97271.78
2023-05-17T12:35:19.438Z,97281.06
2023-05-17T12:37:47.188Z,97277.59
2023-05-17T12:40:14.955Z,97280.00
2023-05-17T12:42:43.907Z,97270.47
2023-05-17T12:45:13.604Z,97272.47
2023-05-17T12:47:43.918Z,97269.63
2023-05-17T12:50:12.760Z,97278.91
2023-05-17T12:52:42.038Z,97269.56
2023-05-17T12:55:14.014Z,97276.19
2023-05-17T12:57:49.964Z,97284.66
2023-05-17T13:00:18.921Z,97278.78
2023-05-17T13:02:47.908Z,97288.84
2023-05-17T13:05:18.451Z,97275.47
2023-05-17T13:07:47.206Z,97278.69
2023-05-17T13:10:22.108Z,97283.50
2023-05-17T13:12:57.146Z,97286.84
2023-05-17T13:15:29.991Z,97285.00
2023-05-17T13:17:59.915Z,97288.59
2023-05-17T13:20:29.206Z,97280.31
2023-05-17T13:22:57.113Z,97274.81
2023-05-17T13:25:24.985Z,97286.50
2023-05-17T13:27:55.307Z,97284.88
2023-05-17T13:30:23.054Z,97281.63
2023-05-17T13:32:51.626Z,97279.19
2023-05-17T13:35:20.663Z,97280.38
2023-05-17T13:37:48.280Z,97288.44
2023-05-17T13:40:16.430Z,97282.56
2023-05-17T13:42:43.994Z,97282.75
2023-05-17T13:45:13.561Z,97284.94
2023-05-17T13:47:41.372Z,97291.75
2023-05-17T13:50:12.029Z,97294.75
2023-05-17T13:52:42.233Z,97298.19
2023-05-17T13:55:10.297Z,97288.25
2023-05-17T13:57:37.939Z,97291.22
2023-05-17T14:00:06.877Z,97290.00
2023-05-17T14:02:35.461Z,97295.19
2023-05-17T14:05:04.713Z,97295.09
2023-05-17T14:07:32.282Z,97294.84
2023-05-17T14:10:02.087Z,97297.84
2023-05-17T14:12:29.682Z,97296.19
2023-05-17T14:14:57.234Z,97295.56
2023-05-17T14:17:24.797Z,97301.19
2023-05-17T14:19:52.657Z,97298.94
2023-05-17T14:22:20.417Z,97299.94
2023-05-17T14:24:47.971Z,97302.94
2023-05-17T14:27:17.202Z,97299.47
2023-05-17T14:29:46.406Z,97301.47
2023-05-17T14:32:15.670Z,97305.47
2023-05-17T14:34:43.341Z,97306.63
2023-05-17T14:37:11.266Z,97310.63
2023-05-17T14:39:39.205Z,97307.72
2023-05-17T14:42:07.119Z,97319.22
2023-05-17T14:44:38.877Z,97311.34
2023-05-17T14:47:08.572Z,97310.72
2023-05-17T14:49:36.441Z,97316.31
2023-05-17T14:52:07.999Z,97317.50
2023-05-17T14:54:37.967Z,97314.44
2023-05-17T14:57:09.493Z,97312.34
2023-05-17T14:59:38.977Z,97306.63
2023-05-17T15:02:12.538Z,97311.25
2023-05-17T15:04:40.580Z,97305.38
2023-05-17T15:07:08.461Z,97313.22
2023-05-17T15:09:41.465Z,97318.47
2023-05-17T15:12:11.761Z,97313.41
2023-05-17T15:14:43.530Z,97312.59
2023-05-17T15:17:11.918Z,97312.59
2023-05-17T15:19:39.801Z,97318.63
2023-05-17T15:22:07.788Z,97302.13
2023-05-17T15:24:37.276Z,97307.81
2023-05-17T15:27:05.886Z,97306.00
2023-05-17T15:29:33.901Z,97308.00
2023-05-17T15:32:02.847Z,97306.72
2023-05-17T15:34:30.718Z,97300.03
2023-05-17T15:36:58.399Z,97307.25
2023-05-17T15:39:26.432Z,97306.81
2023-05-17T15:41:54.016Z,97310.78
2023-05-17T15:44:23.818Z,97313.75
2023-05-17T15:46:51.594Z,97305.44
2023-05-17T15:49:20.613Z,97306.97
2023-05-17T15:51:49.285Z,97309.13
2023-05-17T15:54:18.035Z,97309.94
2023-05-17T15:56:46.240Z,97306.97
2023-05-17T15:59:16.128Z,97313.84
2023-05-17T16:04:50.411Z,97314.66
2023-05-17T16:07:21.940Z,97301.28
2023-05-17T16:09:51.999Z,97306.09
2023-05-17T16:12:22.785Z,97309.84
2023-05-17T16:14:50.867Z,97310.03
2023-05-17T16:17:19.782Z,97308.41
2023-05-17T16:19:48.922Z,97313.63
2023-05-17T16:22:16.887Z,97310.03
2023-05-17T16:24:44.822Z,97310.69
2023-05-17T16:27:12.916Z,97305.16
2023-05-17T16:29:42.006Z,97309.09
2023-05-17T16:32:11.190Z,97304.25
2023-05-17T16:34:50.596Z,97305.25
2023-05-17T16:37:23.438Z,97305.25
2023-05-17T16:39:52.975Z,97308.31
2023-05-17T16:42:21.796Z,97311.56
2023-05-17T16:44:50.044Z,97309.75
2023-05-17T16:47:19.055Z,97309.09
2023-05-17T16:49:49.067Z,97307.03
2023-05-17T16:52:17.297Z,97314.06
2023-05-17T16:54:46.750Z,97312.09
2023-05-17T16:57:15.300Z,97307.66
2023-05-17T16:59:43.105Z,97310.13
2023-05-17T17:02:10.926Z,97314.34
2023-05-17T17:04:38.778Z,97313.53
2023-05-17T17:07:06.780Z,97302.25
2023-05-17T17:09:36.474Z,97312.72
2023-05-17T17:12:20.235Z,97305.84
2023-05-17T17:14:51.791Z,97302.44
2023-05-17T17:17:21.402Z,97302.44
2023-05-17T17:19:49.177Z,97303.44
2023-05-17T17:22:16.839Z,97304.25
2023-05-17T17:24:44.831Z,97305.25
2023-05-17T17:27:15.371Z,97301.16
2023-05-17T17:35:29.610Z,97308.09
2023-05-17T17:38:03.419Z,97312.53
2023-05-17T17:40:43.975Z,97315.13
2023-05-17T17:43:33.248Z,97318.72
2023-05-17T17:46:00.938Z,97323.31
2023-05-17T17:48:28.634Z,97318.09
2023-05-17T17:50:56.830Z,97316.47
2023-05-17T17:53:24.413Z,97324.50
2023-05-17T17:55:51.987Z,97320.06
2023-05-17T17:58:19.573Z,97314.03
2023-05-17T18:00:48.610Z,97318.63
2023-05-17T18:03:16.352Z,97315.03
2023-05-17T18:05:44.075Z,97316.84
2023-05-17T18:08:11.620Z,97317.81
2023-05-17T18:10:39.173Z,97314.41
2023-05-17T18:13:06.823Z,97309.97
2023-05-17T18:15:34.664Z,97314.41
2023-05-17T18:18:03.689Z,97322.41
2023-05-17T18:20:31.699Z,97312.31
2023-05-17T18:22:59.371Z,97311.66
2023-05-17T18:25:26.966Z,97321.66
2023-05-17T18:27:54.618Z,97319.41
2023-05-17T18:30:22.175Z,97323.34
2023-05-17T18:32:49.794Z,97315.03
2023-05-17T18:35:18.726Z,97326.50
2023-05-17T18:37:46.347Z,97319.19
2023-05-17T18:40:15.304Z,97322.94
2023-05-17T18:42:43.586Z,97319.88
2023-05-17T18:45:11.778Z,97326.59
2023-05-17T18:47:39.421Z,97337.59
2023-05-17T18:50:08.109Z,97333.69
2023-05-17T18:52:37.065Z,97329.63
2023-05-17T18:55:04.902Z,97339.59
2023-05-17T18:57:32.616Z,97329.00
2023-05-17T19:00:00.716Z,97331.31
2023-05-17T19:02:28.399Z,97337.22
2023-05-17T19:04:56.080Z,97337.91
2023-05-17T19:07:23.764Z,97334.97
2023-05-17T19:09:52.678Z,97341.25
2023-05-17T19:12:20.257Z,97338.66
2023-05-17T19:14:47.797Z,97344.91
2023-05-17T19:17:15.979Z,97345.06
2023-05-17T19:19:43.649Z,97337.28
2023-05-17T19:22:11.526Z,97343.50
2023-05-17T19:24:39.133Z,97346.28
2023-05-17T19:27:08.208Z,97344.69
2023-05-17T19:29:35.960Z,97348.28
2023-05-17T19:32:04.543Z,97354.47
2023-05-17T19:34:32.113Z,97356.13
2023-05-17T19:36:59.719Z,97356.78
2023-05-17T19:39:27.321Z,97356.94
2023-05-17T19:41:55.125Z,97353.50
2023-05-17T19:44:24.049Z,97357.75
2023-05-17T19:46:51.807Z,97359.53
2023-05-17T19:49:19.549Z,97355.75
2023-05-17T19:51:48.115Z,97353.78
2023-05-17T19:54:15.866Z,97363.06
2023-05-17T19:56:43.720Z,97357.69
2023-05-17T20:02:42.351Z,97353.41
2023-05-17T20:05:17.322Z,97345.75
2023-05-17T20:07:47.104Z,97347.72
2023-05-17T20:10:23.966Z,97347.84
2023-05-17T20:21:15.441Z,97348.44
2023-05-17T23:14:02.062Z,97332.41
2023-05-17T23:16:29.744Z,97328.84
2023-05-17T23:18:58.041Z,97329.00
2023-05-17T23:21:25.810Z,97320.63
2023-05-17T23:23:53.593Z,97329.41
2023-05-17T23:26:22.086Z,97324.50
2023-05-17T23:28:50.699Z,97328.09
2023-05-17T23:31:21.731Z,97329.34
2023-05-17T23:33:49.515Z,97328.81
2023-05-17T23:36:17.141Z,97327.34
2023-05-17T23:38:44.763Z,97328.44
2023-05-17T23:41:17.873Z,97329.72
2023-05-17T23:43:46.750Z,97321.56
2023-05-17T23:46:19.959Z,97327.19
2023-05-17T23:48:50.389Z,97320.88
2023-05-17T23:51:19.751Z,97320.28
2023-05-17T23:53:48.743Z,97325.41
2023-05-17T23:56:17.684Z,97321.22
2023-05-17T23:58:45.592Z,97321.22
